Portada
METAR-TAF:

METAR-TAF

Aeroports :

Yasuj, Iran

latitud: 30-41-49N, longitud: 051-33E, altitud: 1825 m

Observació

L'informe es va fer fa 26 minuts, a les 21:00 UTC
Vent 6 kt del Est
Temperatura 23°C
Humitat 33%
Pressió 1013 hPa
Visibilitat 10 km o més
Núvols disperses a una alçada de 4000 ft

METAR: OISY 162100Z 08006KT 9999 SCT040 23/06 Q1013

Hora: 01:56 (21:26 UTC)


TAF: manca

Observacions i pronòstics meteorològics de més de 4000 aeroports (METAR i TAF).

Les estacions disponibles són els punts grocs i vermells al mapa.

Posi el ratolí al punt desitjat per veure el nom de l'estació.

Feu clic per veure les observacions i els pronòstics meteorològics.

Per canviar el mapa: feu clic els botons verds amb una creu de color negre per apropar; al botó verd amb un guió per allunyar la imatge; o en les fletxes verdes per a mapes adjacents.


METAR-TAF: